sensor_id;sensor_type;location;lat;lon;timestamp;pressure;altitude;pressure_sealevel;temperature
53667;BMP280;39568;51.026;5.468;2022-08-01T00:00:29;100964.47;;;19.55
53667;BMP280;39568;51.026;5.468;2022-08-01T00:02:56;100953.50;;;19.53
53667;BMP280;39568;51.026;5.468;2022-08-01T00:05:22;100960.53;;;19.49
53667;BMP280;39568;51.026;5.468;2022-08-01T00:07:49;100961.97;;;19.57
53667;BMP280;39568;51.026;5.468;2022-08-01T00:10:19;100961.22;;;19.57
53667;BMP280;39568;51.026;5.468;2022-08-01T00:12:47;100957.28;;;19.58
53667;BMP280;39568;51.026;5.468;2022-08-01T00:15:17;100963.03;;;19.62
53667;BMP280;39568;51.026;5.468;2022-08-01T00:17:44;100959.09;;;19.63
53667;BMP280;39568;51.026;5.468;2022-08-01T00:20:14;100962.84;;;19.60
53667;BMP280;39568;51.026;5.468;2022-08-01T00:22:42;100959.59;;;19.61
53667;BMP280;39568;51.026;5.468;2022-08-01T00:25:11;100952.75;;;19.60
53667;BMP280;39568;51.026;5.468;2022-08-01T00:27:39;100950.63;;;19.59
53667;BMP280;39568;51.026;5.468;2022-08-01T00:30:07;100958.38;;;19.55
53667;BMP280;39568;51.026;5.468;2022-08-01T00:32:33;100965.53;;;19.60
53667;BMP280;39568;51.026;5.468;2022-08-01T00:35:00;100961.94;;;19.65
53667;BMP280;39568;51.026;5.468;2022-08-01T00:37:30;100963.38;;;19.66
53667;BMP280;39568;51.026;5.468;2022-08-01T00:39:57;100959.78;;;19.71
53667;BMP280;39568;51.026;5.468;2022-08-01T00:42:23;100962.28;;;19.69
53667;BMP280;39568;51.026;5.468;2022-08-01T00:44:51;100967.28;;;19.72
53667;BMP280;39568;51.026;5.468;2022-08-01T00:47:18;100965.19;;;19.71
53667;BMP280;39568;51.026;5.468;2022-08-01T00:49:45;100967.28;;;19.72
53667;BMP280;39568;51.026;5.468;2022-08-01T00:52:11;100969.84;;;19.70
53667;BMP280;39568;51.026;5.468;2022-08-01T00:54:38;100963.38;;;19.66
53667;BMP280;39568;51.026;5.468;2022-08-01T00:57:06;100974.19;;;19.66
53667;BMP280;39568;51.026;5.468;2022-08-01T00:59:33;100967.31;;;19.65
53667;BMP280;39568;51.026;5.468;2022-08-01T01:02:05;100971.28;;;19.64
53667;BMP280;39568;51.026;5.468;2022-08-01T01:04:33;100970.94;;;19.60
53667;BMP280;39568;51.026;5.468;2022-08-01T01:07:11;100969.88;;;19.63
53667;BMP280;39568;51.026;5.468;2022-08-01T01:09:42;100973.97;;;19.64
53667;BMP280;39568;51.026;5.468;2022-08-01T01:12:20;100963.38;;;19.66
53667;BMP280;39568;51.026;5.468;2022-08-01T01:14:54;100969.66;;;19.68
53667;BMP280;39568;51.026;5.468;2022-08-01T01:17:41;100963.56;;;19.68
53667;BMP280;39568;51.026;5.468;2022-08-01T01:20:11;100961.56;;;19.68
53667;BMP280;39568;51.026;5.468;2022-08-01T01:22:47;100964.44;;;19.70
53667;BMP280;39568;51.026;5.468;2022-08-01T01:25:30;100956.88;;;19.69
53667;BMP280;39568;51.026;5.468;2022-08-01T01:28:08;100964.25;;;19.68
53667;BMP280;39568;51.026;5.468;2022-08-01T01:30:46;100961.75;;;19.70
53667;BMP280;39568;51.026;5.468;2022-08-01T01:33:16;100953.78;;;19.72
53667;BMP280;39568;51.026;5.468;2022-08-01T01:35:56;100955.44;;;19.68
53667;BMP280;39568;51.026;5.468;2022-08-01T01:38:26;100951.31;;;19.67
53667;BMP280;39568;51.026;5.468;2022-08-01T01:40:55;100956.16;;;19.68
53667;BMP280;39568;51.026;5.468;2022-08-01T01:43:24;100955.44;;;19.68
53667;BMP280;39568;51.026;5.468;2022-08-01T01:45:54;100954.03;;;19.67
53667;BMP280;39568;51.026;5.468;2022-08-01T01:48:23;100960.84;;;19.68
53667;BMP280;39568;51.026;5.468;2022-08-01T01:50:52;100956.72;;;19.67
53667;BMP280;39568;51.026;5.468;2022-08-01T01:53:22;100955.44;;;19.68
53667;BMP280;39568;51.026;5.468;2022-08-01T01:55:52;100949.34;;;19.67
53667;BMP280;39568;51.026;5.468;2022-08-01T01:58:27;100950.75;;;19.68
53667;BMP280;39568;51.026;5.468;2022-08-01T02:01:03;100947.53;;;19.70
53667;BMP280;39568;51.026;5.468;2022-08-01T02:03:31;100942.31;;;19.72
53667;BMP280;39568;51.026;5.468;2022-08-01T02:06:02;100937.97;;;19.69
53667;BMP280;39568;51.026;5.468;2022-08-01T02:08:30;100943.72;;;19.73
53667;BMP280;39568;51.026;5.468;2022-08-01T02:11:00;100943.56;;;19.71
53667;BMP280;39568;51.026;5.468;2022-08-01T02:13:51;100949.88;;;19.66
53667;BMP280;39568;51.026;5.468;2022-08-01T02:16:27;100943.22;;;19.67
53667;BMP280;39568;51.026;5.468;2022-08-01T02:18:57;100956.38;;;19.63
53667;BMP280;39568;51.026;5.468;2022-08-01T02:21:28;100951.00;;;19.63
53667;BMP280;39568;51.026;5.468;2022-08-01T02:24:03;100945.38;;;19.61
53667;BMP280;39568;51.026;5.468;2022-08-01T02:26:39;100942.53;;;19.59
53667;BMP280;39568;51.026;5.468;2022-08-01T02:29:10;100943.94;;;19.60
53667;BMP280;39568;51.026;5.468;2022-08-01T02:31:43;100946.84;;;19.62
53667;BMP280;39568;51.026;5.468;2022-08-01T02:34:17;100942.69;;;19.61
53667;BMP280;39568;51.026;5.468;2022-08-01T02:36:45;100950.06;;;19.60
53667;BMP280;39568;51.026;5.468;2022-08-01T02:39:14;100948.28;;;19.63
53667;BMP280;39568;51.026;5.468;2022-08-01T02:41:45;100944.88;;;19.62
53667;BMP280;39568;51.026;5.468;2022-08-01T02:44:22;100944.28;;;19.64
53667;BMP280;39568;51.026;5.468;2022-08-01T02:46:56;100943.63;;;19.63
53667;BMP280;39568;51.026;5.468;2022-08-01T02:49:29;100944.28;;;19.64
53667;BMP280;39568;51.026;5.468;2022-08-01T02:51:57;100939.59;;;19.64
53667;BMP280;39568;51.026;5.468;2022-08-01T02:54:27;100934.22;;;19.64
53667;BMP280;39568;51.026;5.468;2022-08-01T02:56:56;100944.28;;;19.64
53667;BMP280;39568;51.026;5.468;2022-08-01T02:59:24;100935.66;;;19.65
53667;BMP280;39568;51.026;5.468;2022-08-01T03:01:56;100937.84;;;19.67
53667;BMP280;39568;51.026;5.468;2022-08-01T03:04:26;100932.44;;;19.67
53667;BMP280;39568;51.026;5.468;2022-08-01T03:06:54;100931.34;;;19.70
53667;BMP280;39568;51.026;5.468;2022-08-01T03:09:25;100939.25;;;19.68
53667;BMP280;39568;51.026;5.468;2022-08-01T03:11:54;100935.13;;;19.67
53667;BMP280;39568;51.026;5.468;2022-08-01T03:14:23;100943.22;;;19.67
53667;BMP280;39568;51.026;5.468;2022-08-01T03:16:51;100943.56;;;19.71
53667;BMP280;39568;51.026;5.468;2022-08-01T03:19:23;100945.34;;;19.68
53667;BMP280;39568;51.026;5.468;2022-08-01T03:21:51;100951.47;;;19.69
53667;BMP280;39568;51.026;5.468;2022-08-01T03:24:21;100956.53;;;19.65
53667;BMP280;39568;51.026;5.468;2022-08-01T03:26:56;100948.63;;;19.67
53667;BMP280;39568;51.026;5.468;2022-08-01T03:29:25;100950.59;;;19.66
53667;BMP280;39568;51.026;5.468;2022-08-01T03:31:52;100951.13;;;19.65
53667;BMP280;39568;51.026;5.468;2022-08-01T03:34:23;100943.22;;;19.67
53667;BMP280;39568;51.026;5.468;2022-08-01T03:36:54;100952.03;;;19.60
53667;BMP280;39568;51.026;5.468;2022-08-01T03:39:34;100943.94;;;19.60
53667;BMP280;39568;51.026;5.468;2022-08-01T03:42:07;100953.69;;;19.63
53667;BMP280;39568;51.026;5.468;2022-08-01T03:44:35;100951.50;;;19.61
53667;BMP280;39568;51.026;5.468;2022-08-01T03:47:08;100955.09;;;19.56
53667;BMP280;39568;51.026;5.468;2022-08-01T03:49:40;100959.97;;;19.58
53667;BMP280;39568;51.026;5.468;2022-08-01T03:52:10;100958.72;;;19.59
53667;BMP280;39568;51.026;5.468;2022-08-01T03:54:41;100962.69;;;19.58
53667;BMP280;39568;51.026;5.468;2022-08-01T03:57:13;100953.88;;;19.57
53667;BMP280;39568;51.026;5.468;2022-08-01T03:59:42;100958.38;;;19.55
53667;BMP280;39568;51.026;5.468;2022-08-01T04:02:09;100955.69;;;19.55
53667;BMP280;39568;51.026;5.468;2022-08-01T04:04:39;100950.28;;;19.55
53667;BMP280;39568;51.026;5.468;2022-08-01T04:07:21;100952.63;;;19.51
53667;BMP280;39568;51.026;5.468;2022-08-01T04:09:48;100952.25;;;19.47
53667;BMP280;39568;51.026;5.468;2022-08-01T04:12:15;100962.38;;;19.46
53667;BMP280;39568;51.026;5.468;2022-08-01T04:14:44;100962.72;;;19.43
53667;BMP280;39568;51.026;5.468;2022-08-01T04:17:17;100963.06;;;19.47
53667;BMP280;39568;51.026;5.468;2022-08-01T04:19:46;100964.34;;;19.46
53667;BMP280;39568;51.026;5.468;2022-08-01T04:22:14;100963.78;;;19.47
53667;BMP280;39568;51.026;5.468;2022-08-01T04:24:43;100967.38;;;19.50
53667;BMP280;39568;51.026;5.468;2022-08-01T04:27:17;100974.72;;;19.57
53667;BMP280;39568;51.026;5.468;2022-08-01T04:29:51;100968.09;;;19.58
53667;BMP280;39568;51.026;5.468;2022-08-01T04:32:21;100977.81;;;19.53
53667;BMP280;39568;51.026;5.468;2022-08-01T04:34:50;100963.59;;;19.53
53667;BMP280;39568;51.026;5.468;2022-08-01T04:37:19;100968.09;;;19.43
53667;BMP280;39568;51.026;5.468;2022-08-01T04:39:46;100970.28;;;19.37
53667;BMP280;39568;51.026;5.468;2022-08-01T04:42:14;100973.16;;;19.39
53667;BMP280;39568;51.026;5.468;2022-08-01T04:44:44;100990.09;;;19.32
53667;BMP280;39568;51.026;5.468;2022-08-01T04:47:11;100981.28;;;19.31
53667;BMP280;39568;51.026;5.468;2022-08-01T04:49:39;100988.47;;;19.28
53667;BMP280;39568;51.026;5.468;2022-08-01T04:52:08;100982.50;;;19.30
53667;BMP280;39568;51.026;5.468;2022-08-01T04:54:39;100987.03;;;19.27
53667;BMP280;39568;51.026;5.468;2022-08-01T04:57:06;100990.47;;;19.28
53667;BMP280;39568;51.026;5.468;2022-08-01T04:59:35;100988.28;;;19.26
53667;BMP280;39568;51.026;5.468;2022-08-01T05:02:11;100989.00;;;19.27
53667;BMP280;39568;51.026;5.468;2022-08-01T05:04:45;100990.78;;;19.24
53667;BMP280;39568;51.026;5.468;2022-08-01T05:07:15;100991.72;;;19.27
53667;BMP280;39568;51.026;5.468;2022-08-01T05:09:42;100996.38;;;19.26
53667;BMP280;39568;51.026;5.468;2022-08-01T05:12:12;100996.91;;;19.25
53667;BMP280;39568;51.026;5.468;2022-08-01T05:14:46;100997.25;;;19.21
53667;BMP280;39568;51.026;5.468;2022-08-01T05:17:14;101000.16;;;19.16
53667;BMP280;39568;51.026;5.468;2022-08-01T05:19:41;101005.00;;;19.17
53667;BMP280;39568;51.026;5.468;2022-08-01T05:22:09;101005.56;;;19.16
53667;BMP280;39568;51.026;5.468;2022-08-01T05:24:39;101009.53;;;19.15
53667;BMP280;39568;51.026;5.468;2022-08-01T05:27:07;101010.06;;;19.06
53667;BMP280;39568;51.026;5.468;2022-08-01T05:29:34;101010.97;;;19.08
53667;BMP280;39568;51.026;5.468;2022-08-01T05:32:05;101005.38;;;19.14
53667;BMP280;39568;51.026;5.468;2022-08-01T05:34:32;101011.31;;;19.20
53667;BMP280;39568;51.026;5.468;2022-08-01T05:37:01;101014.53;;;19.26
53667;BMP280;39568;51.026;5.468;2022-08-01T05:39:30;101016.72;;;19.27
53667;BMP280;39568;51.026;5.468;2022-08-01T05:42:03;101010.97;;;19.23
53667;BMP280;39568;51.026;5.468;2022-08-01T05:44:30;101011.50;;;19.14
53667;BMP280;39568;51.026;5.468;2022-08-01T05:46:56;101018.13;;;19.13
53667;BMP280;39568;51.026;5.468;2022-08-01T05:49:23;101018.13;;;19.13
53667;BMP280;39568;51.026;5.468;2022-08-01T05:51:50;101018.13;;;19.13
53667;BMP280;39568;51.026;5.468;2022-08-01T05:54:17;101010.22;;;19.15
53667;BMP280;39568;51.026;5.468;2022-08-01T05:56:44;101010.59;;;19.19
53667;BMP280;39568;51.026;5.468;2022-08-01T05:59:13;101019.22;;;19.25
53667;BMP280;39568;51.026;5.468;2022-08-01T06:01:42;101006.66;;;19.28
53667;BMP280;39568;51.026;5.468;2022-08-01T06:04:19;101005.34;;;19.37
53667;BMP280;39568;51.026;5.468;2022-08-01T06:06:46;101005.34;;;19.37
53667;BMP280;39568;51.026;5.468;2022-08-01T06:09:15;101009.13;;;19.49
53667;BMP280;39568;51.026;5.468;2022-08-01T06:11:43;101010.19;;;19.53
53667;BMP280;39568;51.026;5.468;2022-08-01T06:14:10;101013.75;;;19.56
53667;BMP280;39568;51.026;5.468;2022-08-01T06:16:38;101018.97;;;19.69
53667;BMP280;39568;51.026;5.468;2022-08-01T06:19:04;101011.94;;;19.81
53667;BMP280;39568;51.026;5.468;2022-08-01T06:21:35;101010.44;;;19.95
53667;BMP280;39568;51.026;5.468;2022-08-01T06:24:02;101004.31;;;20.02
53667;BMP280;39568;51.026;5.468;2022-08-01T06:26:28;101011.47;;;20.07
53667;BMP280;39568;51.026;5.468;2022-08-01T06:28:56;101009.63;;;20.17
53667;BMP280;39568;51.026;5.468;2022-08-01T06:31:23;101007.41;;;20.31
53667;BMP280;39568;51.026;5.468;2022-08-01T06:33:55;101019.44;;;20.37
53667;BMP280;39568;51.026;5.468;2022-08-01T06:36:22;101020.53;;;20.34
53667;BMP280;39568;51.026;5.468;2022-08-01T06:38:50;101022.50;;;20.41
53667;BMP280;39568;51.026;5.468;2022-08-01T06:41:20;101016.13;;;20.46
53667;BMP280;39568;51.026;5.468;2022-08-01T06:43:53;101020.03;;;20.60
53667;BMP280;39568;51.026;5.468;2022-08-01T06:46:20;101014.09;;;20.54
53667;BMP280;39568;51.026;5.468;2022-08-01T06:48:48;101017.72;;;20.49
53667;BMP280;39568;51.026;5.468;2022-08-01T06:51:17;101030.53;;;20.56
53667;BMP280;39568;51.026;5.468;2022-08-01T06:53:45;101024.63;;;20.75
53667;BMP280;39568;51.026;5.468;2022-08-01T06:56:11;101020.19;;;20.87
53667;BMP280;39568;51.026;5.468;2022-08-01T06:58:41;101025.28;;;21.08
53667;BMP280;39568;51.026;5.468;2022-08-01T07:01:07;101032.84;;;21.09
53667;BMP280;39568;51.026;5.468;2022-08-01T07:03:35;101025.59;;;21.12
53667;BMP280;39568;51.026;5.468;2022-08-01T07:06:05;101030.16;;;21.26
53667;BMP280;39568;51.026;5.468;2022-08-01T07:08:33;101025.94;;;21.33
53667;BMP280;39568;51.026;5.468;2022-08-01T07:11:00;101022.19;;;21.28
53667;BMP280;39568;51.026;5.468;2022-08-01T07:13:27;101022.19;;;21.28
53667;BMP280;39568;51.026;5.468;2022-08-01T07:15:56;101016.88;;;21.38
53667;BMP280;39568;51.026;5.468;2022-08-01T07:18:23;101020.16;;;21.53
53667;BMP280;39568;51.026;5.468;2022-08-01T07:20:50;101024.69;;;21.68
53667;BMP280;39568;51.026;5.468;2022-08-01T07:23:17;101020.59;;;21.59
53667;BMP280;39568;51.026;5.468;2022-08-01T07:25:45;101020.22;;;21.46
53667;BMP280;39568;51.026;5.468;2022-08-01T07:28:13;101024.84;;;21.53
53667;BMP280;39568;51.026;5.468;2022-08-01T07:30:42;101027.56;;;21.53
53667;BMP280;39568;51.026;5.468;2022-08-01T07:33:13;101035.25;;;21.73
53667;BMP280;39568;51.026;5.468;2022-08-01T07:35:40;101039.56;;;21.94
53667;BMP280;39568;51.026;5.468;2022-08-01T07:38:07;101042.97;;;21.94
53667;BMP280;39568;51.026;5.468;2022-08-01T07:40:34;101041.88;;;21.80
53667;BMP280;39568;51.026;5.468;2022-08-01T07:43:02;101039.66;;;21.69
53667;BMP280;39568;51.026;5.468;2022-08-01T07:45:29;101037.59;;;22.21
53667;BMP280;39568;51.026;5.468;2022-08-01T07:48:03;101045.66;;;22.38
53667;BMP280;39568;51.026;5.468;2022-08-01T07:50:32;101045.03;;;22.30
53667;BMP280;39568;51.026;5.468;2022-08-01T07:53:00;101048.16;;;22.26
53667;BMP280;39568;51.026;5.468;2022-08-01T07:55:29;101042.22;;;22.37
53667;BMP280;39568;51.026;5.468;2022-08-01T07:57:57;101045.34;;;22.34
53667;BMP280;39568;51.026;5.468;2022-08-01T08:00:30;101052.53;;;22.48
53667;BMP280;39568;51.026;5.468;2022-08-01T08:02:56;101054.75;;;22.59
53667;BMP280;39568;51.026;5.468;2022-08-01T08:05:24;101063.50;;;22.67
53667;BMP280;39568;51.026;5.468;2022-08-01T08:07:51;101065.88;;;22.27
53667;BMP280;39568;51.026;5.468;2022-08-01T08:10:18;101058.66;;;22.39
53667;BMP280;39568;51.026;5.468;2022-08-01T08:12:45;101063.19;;;22.37
53667;BMP280;39568;51.026;5.468;2022-08-01T08:15:14;101063.94;;;22.73
53667;BMP280;39568;51.026;5.468;2022-08-01T08:17:42;101067.22;;;23.27
53667;BMP280;39568;51.026;5.468;2022-08-01T08:20:09;101060.22;;;23.34
53667;BMP280;39568;51.026;5.468;2022-08-01T08:22:36;101070.56;;;22.99
53667;BMP280;39568;51.026;5.468;2022-08-01T08:25:03;101075.47;;;22.64
53667;BMP280;39568;51.026;5.468;2022-08-01T08:27:30;101071.63;;;22.67
53667;BMP280;39568;51.026;5.468;2022-08-01T08:30:01;101071.94;;;22.71
53667;BMP280;39568;51.026;5.468;2022-08-01T08:32:31;101066.75;;;23.12
53667;BMP280;39568;51.026;5.468;2022-08-01T08:35:00;101080.94;;;23.29
53667;BMP280;39568;51.026;5.468;2022-08-01T08:37:26;101067.09;;;23.44
53667;BMP280;39568;51.026;5.468;2022-08-01T08:39:53;101069.38;;;23.48
53667;BMP280;39568;51.026;5.468;2022-08-01T08:42:20;101060.22;;;23.72
53667;BMP280;39568;51.026;5.468;2022-08-01T08:44:48;101059.94;;;23.30
53667;BMP280;39568;51.026;5.468;2022-08-01T08:47:15;101063.78;;;23.36
53667;BMP280;39568;51.026;5.468;2022-08-01T08:49:44;101071.91;;;23.27
53667;BMP280;39568;51.026;5.468;2022-08-01T08:52:12;101061.81;;;23.56
53667;BMP280;39568;51.026;5.468;2022-08-01T08:54:41;101065.34;;;23.87
53667;BMP280;39568;51.026;5.468;2022-08-01T08:57:13;101062.44;;;24.04
53667;BMP280;39568;51.026;5.468;2022-08-01T08:59:43;101060.69;;;24.18
53667;BMP280;39568;51.026;5.468;2022-08-01T09:02:10;101061.50;;;23.71
53667;BMP280;39568;51.026;5.468;2022-08-01T09:04:37;101069.41;;;24.66
53667;BMP280;39568;51.026;5.468;2022-08-01T09:07:06;101074.16;;;25.08
53667;BMP280;39568;51.026;5.468;2022-08-01T09:09:37;101073.31;;;24.54
53667;BMP280;39568;51.026;5.468;2022-08-01T09:12:05;101070.28;;;24.59
53667;BMP280;39568;51.026;5.468;2022-08-01T09:14:32;101072.28;;;25.11
53667;BMP280;39568;51.026;5.468;2022-08-01T09:17:02;101086.78;;;25.25
53667;BMP280;39568;51.026;5.468;2022-08-01T09:19:36;101070.19;;;25.86
53667;BMP280;39568;51.026;5.468;2022-08-01T09:22:11;101076.59;;;25.58
53667;BMP280;39568;51.026;5.468;2022-08-01T09:24:56;101075.91;;;25.04
53667;BMP280;39568;51.026;5.468;2022-08-01T09:27:25;101078.81;;;24.96
53667;BMP280;39568;51.026;5.468;2022-08-01T09:29:52;101082.09;;;24.95
53667;BMP280;39568;51.026;5.468;2022-08-01T09:32:20;101081.16;;;24.59
53667;BMP280;39568;51.026;5.468;2022-08-01T09:34:47;101087.13;;;24.37
53667;BMP280;39568;51.026;5.468;2022-08-01T09:37:14;101085.59;;;24.24
53667;BMP280;39568;51.026;5.468;2022-08-01T09:39:45;101085.94;;;24.40
53667;BMP280;39568;51.026;5.468;2022-08-01T09:42:25;101083.16;;;24.59
53667;BMP280;39568;51.026;5.468;2022-08-01T09:44:54;101086.28;;;24.96
53667;BMP280;39568;51.026;5.468;2022-08-01T09:47:20;101085.38;;;25.03
53667;BMP280;39568;51.026;5.468;2022-08-01T09:49:54;101090.94;;;25.91
53667;BMP280;39568;51.026;5.468;2022-08-01T09:52:23;101096.88;;;25.55
53667;BMP280;39568;51.026;5.468;2022-08-01T09:54:55;101081.00;;;26.19
53667;BMP280;39568;51.026;5.468;2022-08-01T09:57:23;101093.94;;;26.30
53667;BMP280;39568;51.026;5.468;2022-08-01T09:59:52;101090.28;;;25.37
53667;BMP280;39568;51.026;5.468;2022-08-01T10:02:31;101083.75;;;25.63
53667;BMP280;39568;51.026;5.468;2022-08-01T10:04:58;101090.94;;;26.83
53667;BMP280;39568;51.026;5.468;2022-08-01T10:07:26;101089.09;;;28.13
53667;BMP280;39568;51.026;5.468;2022-08-01T10:09:54;101084.44;;;28.43
53667;BMP280;39568;51.026;5.468;2022-08-01T10:12:22;101084.00;;;27.06
53667;BMP280;39568;51.026;5.468;2022-08-01T10:14:52;101090.59;;;26.08
53667;BMP280;39568;51.026;5.468;2022-08-01T10:17:25;101098.06;;;26.65
53667;BMP280;39568;51.026;5.468;2022-08-01T10:19:55;101098.72;;;26.29
53667;BMP280;39568;51.026;5.468;2022-08-01T10:22:25;101090.81;;;26.01
53667;BMP280;39568;51.026;5.468;2022-08-01T10:24:57;101100.22;;;26.09
53667;BMP280;39568;51.026;5.468;2022-08-01T10:27:32;101102.13;;;26.76
53667;BMP280;39568;51.026;5.468;2022-08-01T10:30:01;101090.03;;;28.32
53667;BMP280;39568;51.026;5.468;2022-08-01T10:32:35;101085.09;;;27.76
53667;BMP280;39568;51.026;5.468;2022-08-01T10:35:04;101094.28;;;27.69
53667;BMP280;39568;51.026;5.468;2022-08-01T10:37:33;101077.31;;;28.38
53667;BMP280;39568;51.026;5.468;2022-08-01T10:40:06;101085.28;;;27.66
53667;BMP280;39568;51.026;5.468;2022-08-01T10:42:33;101088.75;;;26.93
53667;BMP280;39568;51.026;5.468;2022-08-01T10:45:01;101084.91;;;26.16
53667;BMP280;39568;51.026;5.468;2022-08-01T10:47:38;101086.13;;;26.36
53667;BMP280;39568;51.026;5.468;2022-08-01T10:50:13;101095.53;;;25.88
53667;BMP280;39568;51.026;5.468;2022-08-01T10:52:40;101085.66;;;25.72
53667;BMP280;39568;51.026;5.468;2022-08-01T10:55:08;101088.47;;;25.51
53667;BMP280;39568;51.026;5.468;2022-08-01T10:57:43;101091.78;;;26.63
53667;BMP280;39568;51.026;5.468;2022-08-01T11:00:17;101078.50;;;27.81
53667;BMP280;39568;51.026;5.468;2022-08-01T11:02:57;101082.38;;;28.03
53667;BMP280;39568;51.026;5.468;2022-08-01T11:05:26;101073.84;;;27.83
53667;BMP280;39568;51.026;5.468;2022-08-01T11:07:55;101070.22;;;28.33
53667;BMP280;39568;51.026;5.468;2022-08-01T11:10:32;101078.56;;;27.56
53667;BMP280;39568;51.026;5.468;2022-08-01T11:13:02;101080.81;;;27.73
53667;BMP280;39568;51.026;5.468;2022-08-01T11:15:32;101073.50;;;28.16
53667;BMP280;39568;51.026;5.468;2022-08-01T11:18:01;101071.84;;;28.94
53667;BMP280;39568;51.026;5.468;2022-08-01T11:20:30;101060.22;;;29.54
53667;BMP280;39568;51.026;5.468;2022-08-01T11:23:28;101070.56;;;29.11
53667;BMP280;39568;51.026;5.468;2022-08-01T11:26:14;101072.88;;;28.31
53667;BMP280;39568;51.026;5.468;2022-08-01T11:28:45;101073.88;;;27.97
53667;BMP280;39568;51.026;5.468;2022-08-01T11:31:30;101066.13;;;27.66
53667;BMP280;39568;51.026;5.468;2022-08-01T11:33:59;101074.50;;;28.36
53667;BMP280;39568;51.026;5.468;2022-08-01T11:36:26;101072.63;;;27.73
53667;BMP280;39568;51.026;5.468;2022-08-01T11:39:16;101072.09;;;28.01
53667;BMP280;39568;51.026;5.468;2022-08-01T11:41:48;101068.69;;;29.76
53667;BMP280;39568;51.026;5.468;2022-08-01T11:44:20;101067.13;;;29.71
53667;BMP280;39568;51.026;5.468;2022-08-01T11:47:01;101069.94;;;29.41
53667;BMP280;39568;51.026;5.468;2022-08-01T11:49:43;101066.81;;;28.19
53667;BMP280;39568;51.026;5.468;2022-08-01T11:52:14;101065.66;;;28.51
53667;BMP280;39568;51.026;5.468;2022-08-01T11:54:47;101065.19;;;28.84
53667;BMP280;39568;51.026;5.468;2022-08-01T11:57:19;101062.50;;;28.57
53667;BMP280;39568;51.026;5.468;2022-08-01T11:59:48;101064.34;;;28.95
53667;BMP280;39568;51.026;5.468;2022-08-01T12:02:16;101067.44;;;29.32
53667;BMP280;39568;51.026;5.468;2022-08-01T12:04:45;101064.25;;;28.64
53667;BMP280;39568;51.026;5.468;2022-08-01T12:07:14;101061.75;;;28.83
53667;BMP280;39568;51.026;5.468;2022-08-01T12:09:41;101062.88;;;28.65
53667;BMP280;39568;51.026;5.468;2022-08-01T12:12:08;101076.09;;;28.41
53667;BMP280;39568;51.026;5.468;2022-08-01T12:14:40;101069.66;;;28.35
53667;BMP280;39568;51.026;5.468;2022-08-01T12:17:12;101069.31;;;28.98
53667;BMP280;39568;51.026;5.468;2022-08-01T12:19:40;101063.09;;;28.69
53667;BMP280;39568;51.026;5.468;2022-08-01T12:22:09;101068.88;;;29.04
53667;BMP280;39568;51.026;5.468;2022-08-01T12:24:37;101063.56;;;29.84
53667;BMP280;39568;51.026;5.468;2022-08-01T12:27:05;101061.06;;;29.90
53667;BMP280;39568;51.026;5.468;2022-08-01T12:29:34;101065.59;;;29.36
53667;BMP280;39568;51.026;5.468;2022-08-01T12:32:13;101060.66;;;29.04
53667;BMP280;39568;51.026;5.468;2022-08-01T12:34:46;101065.75;;;28.96
53667;BMP280;39568;51.026;5.468;2022-08-01T12:37:13;101076.22;;;28.30
53667;BMP280;39568;51.026;5.468;2022-08-01T12:39:47;101082.19;;;27.85
53667;BMP280;39568;51.026;5.468;2022-08-01T12:42:15;101073.56;;;28.18
53667;BMP280;39568;51.026;5.468;2022-08-01T12:44:44;101074.56;;;27.84
53667;BMP280;39568;51.026;5.468;2022-08-01T12:47:15;101073.63;;;27.16
53667;BMP280;39568;51.026;5.468;2022-08-01T12:49:43;101074.50;;;28.09
53667;BMP280;39568;51.026;5.468;2022-08-01T12:52:11;101079.16;;;28.20
53667;BMP280;39568;51.026;5.468;2022-08-01T12:55:07;101072.97;;;27.92
53667;BMP280;39568;51.026;5.468;2022-08-01T12:57:35;101063.56;;;28.23
53667;BMP280;39568;51.026;5.468;2022-08-01T13:00:21;101064.19;;;28.35
53667;BMP280;39568;51.026;5.468;2022-08-01T13:02:51;101076.72;;;28.26
53667;BMP280;39568;51.026;5.468;2022-08-01T13:05:26;101083.63;;;27.36
53667;BMP280;39568;51.026;5.468;2022-08-01T13:07:53;101073.97;;;27.47
53667;BMP280;39568;51.026;5.468;2022-08-01T13:10:27;101075.34;;;27.73
53667;BMP280;39568;51.026;5.468;2022-08-01T13:12:57;101074.28;;;28.05
53667;BMP280;39568;51.026;5.468;2022-08-01T13:15:29;101067.88;;;28.41
53667;BMP280;39568;51.026;5.468;2022-08-01T13:18:01;101070.34;;;28.35
53667;BMP280;39568;51.026;5.468;2022-08-01T13:20:30;101073.19;;;28.24
53667;BMP280;39568;51.026;5.468;2022-08-01T13:23:11;101068.34;;;29.36
53667;BMP280;39568;51.026;5.468;2022-08-01T13:25:52;101064.78;;;30.80
53667;BMP280;39568;51.026;5.468;2022-08-01T13:28:24;101072.75;;;32.05
53667;BMP280;39568;51.026;5.468;2022-08-01T13:30:55;101062.47;;;32.49
53667;BMP280;39568;51.026;5.468;2022-08-01T13:33:27;101057.66;;;32.27
53667;BMP280;39568;51.026;5.468;2022-08-01T13:35:56;101056.84;;;33.94
53667;BMP280;39568;51.026;5.468;2022-08-01T13:38:23;101063.38;;;33.28
53667;BMP280;39568;51.026;5.468;2022-08-01T13:41:08;101067.53;;;31.35
53667;BMP280;39568;51.026;5.468;2022-08-01T13:43:38;101071.09;;;31.20
53667;BMP280;39568;51.026;5.468;2022-08-01T13:46:05;101079.63;;;30.73
53667;BMP280;39568;51.026;5.468;2022-08-01T13:48:33;101078.97;;;30.57
53667;BMP280;39568;51.026;5.468;2022-08-01T13:51:00;101073.22;;;30.33
53667;BMP280;39568;51.026;5.468;2022-08-01T13:53:27;101074.03;;;30.20
53667;BMP280;39568;51.026;5.468;2022-08-01T13:55:56;101074.72;;;29.57
53667;BMP280;39568;51.026;5.468;2022-08-01T13:58:23;101079.50;;;30.03
53667;BMP280;39568;51.026;5.468;2022-08-01T14:00:50;101074.59;;;30.50
53667;BMP280;39568;51.026;5.468;2022-08-01T14:03:17;101083.38;;;30.99
53667;BMP280;39568;51.026;5.468;2022-08-01T14:05:54;101083.66;;;30.37
53667;BMP280;39568;51.026;5.468;2022-08-01T14:08:22;101082.53;;;30.77
53667;BMP280;39568;51.026;5.468;2022-08-01T14:10:49;101070.75;;;30.92
53667;BMP280;39568;51.026;5.468;2022-08-01T14:13:18;101090.72;;;30.42